sensor_id;sensor_type;location;lat;lon;timestamp;P1;durP1;ratioP1;P2;durP2;ratioP2
11854;SDS011;5987;53.140;8.904;2023-09-07T00:01:17;3.33;;;2.43;;
11854;SDS011;5987;53.140;8.904;2023-09-07T00:04:21;2.50;;;2.30;;
11854;SDS011;5987;53.140;8.904;2023-09-07T00:07:26;2.63;;;2.30;;
11854;SDS011;5987;53.140;8.904;2023-09-07T00:10:30;4.67;;;2.50;;
11854;SDS011;5987;53.140;8.904;2023-09-07T00:13:36;3.17;;;2.23;;
11854;SDS011;5987;53.140;8.904;2023-09-07T00:16:40;2.40;;;2.03;;
11854;SDS011;5987;53.140;8.904;2023-09-07T00:19:44;2.33;;;2.13;;
11854;SDS011;5987;53.140;8.904;2023-09-07T00:22:51;3.03;;;2.30;;
11854;SDS011;5987;53.140;8.904;2023-09-07T00:25:55;2.40;;;2.10;;
11854;SDS011;5987;53.140;8.904;2023-09-07T00:28:59;3.43;;;2.43;;
11854;SDS011;5987;53.140;8.904;2023-09-07T00:32:02;2.40;;;2.20;;
11854;SDS011;5987;53.140;8.904;2023-09-07T00:35:08;3.20;;;2.90;;
11854;SDS011;5987;53.140;8.904;2023-09-07T00:38:13;2.40;;;1.90;;
11854;SDS011;5987;53.140;8.904;2023-09-07T00:41:16;2.83;;;2.47;;
11854;SDS011;5987;53.140;8.904;2023-09-07T00:44:20;3.07;;;2.50;;
11854;SDS011;5987;53.140;8.904;2023-09-07T00:47:24;3.60;;;2.70;;
11854;SDS011;5987;53.140;8.904;2023-09-07T00:50:28;2.57;;;2.37;;
11854;SDS011;5987;53.140;8.904;2023-09-07T00:53:33;3.23;;;2.87;;
11854;SDS011;5987;53.140;8.904;2023-09-07T00:56:37;3.37;;;2.70;;
11854;SDS011;5987;53.140;8.904;2023-09-07T00:59:40;3.47;;;2.43;;
11854;SDS011;5987;53.140;8.904;2023-09-07T01:02:44;3.30;;;3.00;;
11854;SDS011;5987;53.140;8.904;2023-09-07T01:05:51;6.43;;;3.00;;
11854;SDS011;5987;53.140;8.904;2023-09-07T01:09:03;2.60;;;2.40;;
11854;SDS011;5987;53.140;8.904;2023-09-07T01:12:15;3.10;;;2.80;;
11854;SDS011;5987;53.140;8.904;2023-09-07T01:15:19;3.43;;;3.03;;
11854;SDS011;5987;53.140;8.904;2023-09-07T01:18:22;2.87;;;2.60;;
11854;SDS011;5987;53.140;8.904;2023-09-07T01:21:27;5.23;;;2.90;;
11854;SDS011;5987;53.140;8.904;2023-09-07T01:24:37;4.07;;;2.70;;
11854;SDS011;5987;53.140;8.904;2023-09-07T01:27:42;3.37;;;2.50;;
11854;SDS011;5987;53.140;8.904;2023-09-07T01:30:46;6.03;;;2.83;;
11854;SDS011;5987;53.140;8.904;2023-09-07T01:33:50;3.23;;;2.13;;
11854;SDS011;5987;53.140;8.904;2023-09-07T01:36:54;3.07;;;2.77;;
11854;SDS011;5987;53.140;8.904;2023-09-07T01:39:58;3.93;;;2.90;;
11854;SDS011;5987;53.140;8.904;2023-09-07T01:43:02;3.10;;;2.67;;
11854;SDS011;5987;53.140;8.904;2023-09-07T01:46:06;3.13;;;2.73;;
11854;SDS011;5987;53.140;8.904;2023-09-07T01:49:09;5.03;;;3.13;;
11854;SDS011;5987;53.140;8.904;2023-09-07T01:52:14;3.07;;;2.70;;
11854;SDS011;5987;53.140;8.904;2023-09-07T01:55:18;4.87;;;2.97;;
11854;SDS011;5987;53.140;8.904;2023-09-07T01:58:21;3.13;;;2.83;;
11854;SDS011;5987;53.140;8.904;2023-09-07T02:01:27;3.43;;;3.00;;
11854;SDS011;5987;53.140;8.904;2023-09-07T02:04:38;6.33;;;2.73;;
11854;SDS011;5987;53.140;8.904;2023-09-07T02:07:43;2.60;;;2.40;;
11854;SDS011;5987;53.140;8.904;2023-09-07T02:10:47;4.03;;;3.30;;
11854;SDS011;5987;53.140;8.904;2023-09-07T02:13:51;4.13;;;2.53;;
11854;SDS011;5987;53.140;8.904;2023-09-07T02:16:55;2.70;;;2.30;;
11854;SDS011;5987;53.140;8.904;2023-09-07T02:19:58;2.50;;;2.30;;
11854;SDS011;5987;53.140;8.904;2023-09-07T02:23:03;3.37;;;2.80;;
11854;SDS011;5987;53.140;8.904;2023-09-07T02:26:07;2.83;;;2.30;;
11854;SDS011;5987;53.140;8.904;2023-09-07T02:29:11;2.77;;;2.57;;
11854;SDS011;5987;53.140;8.904;2023-09-07T02:32:15;3.23;;;2.57;;
11854;SDS011;5987;53.140;8.904;2023-09-07T02:35:18;4.60;;;3.00;;
11854;SDS011;5987;53.140;8.904;2023-09-07T02:38:23;2.90;;;2.60;;
11854;SDS011;5987;53.140;8.904;2023-09-07T02:41:27;3.17;;;2.83;;
11854;SDS011;5987;53.140;8.904;2023-09-07T02:44:31;3.87;;;2.80;;
11854;SDS011;5987;53.140;8.904;2023-09-07T02:47:34;3.33;;;2.83;;
11854;SDS011;5987;53.140;8.904;2023-09-07T02:50:38;3.20;;;2.70;;
11854;SDS011;5987;53.140;8.904;2023-09-07T02:53:43;2.50;;;2.30;;
11854;SDS011;5987;53.140;8.904;2023-09-07T02:56:47;3.27;;;2.47;;
11854;SDS011;5987;53.140;8.904;2023-09-07T02:59:51;2.80;;;2.50;;
11854;SDS011;5987;53.140;8.904;2023-09-07T03:02:56;3.70;;;3.37;;
11854;SDS011;5987;53.140;8.904;2023-09-07T03:06:07;6.97;;;3.00;;
11854;SDS011;5987;53.140;8.904;2023-09-07T03:09:12;4.73;;;3.27;;
11854;SDS011;5987;53.140;8.904;2023-09-07T03:12:16;3.50;;;3.10;;
11854;SDS011;5987;53.140;8.904;2023-09-07T03:15:19;4.57;;;3.37;;
11854;SDS011;5987;53.140;8.904;2023-09-07T03:18:23;2.93;;;2.63;;
11854;SDS011;5987;53.140;8.904;2023-09-07T03:21:27;3.87;;;3.03;;
11854;SDS011;5987;53.140;8.904;2023-09-07T03:24:33;4.13;;;3.30;;
11854;SDS011;5987;53.140;8.904;2023-09-07T03:27:36;5.40;;;3.67;;
11854;SDS011;5987;53.140;8.904;2023-09-07T03:30:40;4.80;;;3.93;;
11854;SDS011;5987;53.140;8.904;2023-09-07T03:33:44;6.80;;;4.00;;
11854;SDS011;5987;53.140;8.904;2023-09-07T03:36:47;6.23;;;4.47;;
11854;SDS011;5987;53.140;8.904;2023-09-07T03:39:52;5.50;;;4.20;;
11854;SDS011;5987;53.140;8.904;2023-09-07T03:42:56;5.10;;;4.60;;
11854;SDS011;5987;53.140;8.904;2023-09-07T03:46:00;5.47;;;4.40;;
11854;SDS011;5987;53.140;8.904;2023-09-07T03:49:03;6.50;;;4.80;;
11854;SDS011;5987;53.140;8.904;2023-09-07T03:52:07;6.47;;;4.67;;
11854;SDS011;5987;53.140;8.904;2023-09-07T03:55:14;5.37;;;4.60;;
11854;SDS011;5987;53.140;8.904;2023-09-07T03:58:19;9.30;;;5.90;;
11854;SDS011;5987;53.140;8.904;2023-09-07T04:01:22;6.17;;;4.70;;
11854;SDS011;5987;53.140;8.904;2023-09-07T04:04:26;5.17;;;4.23;;
11854;SDS011;5987;53.140;8.904;2023-09-07T04:07:30;9.80;;;5.67;;
11854;SDS011;5987;53.140;8.904;2023-09-07T04:10:37;7.10;;;5.67;;
11854;SDS011;5987;53.140;8.904;2023-09-07T04:13:41;6.50;;;5.07;;
11854;SDS011;5987;53.140;8.904;2023-09-07T04:16:45;7.90;;;5.57;;
11854;SDS011;5987;53.140;8.904;2023-09-07T04:19:48;7.63;;;5.00;;
11854;SDS011;5987;53.140;8.904;2023-09-07T04:22:52;7.30;;;5.30;;
11854;SDS011;5987;53.140;8.904;2023-09-07T04:26:05;6.73;;;4.93;;
11854;SDS011;5987;53.140;8.904;2023-09-07T04:29:10;6.93;;;4.83;;
11854;SDS011;5987;53.140;8.904;2023-09-07T04:32:14;7.57;;;4.90;;
11854;SDS011;5987;53.140;8.904;2023-09-07T04:35:18;6.50;;;5.07;;
11854;SDS011;5987;53.140;8.904;2023-09-07T04:38:21;6.50;;;4.70;;
11854;SDS011;5987;53.140;8.904;2023-09-07T04:41:26;6.80;;;4.93;;
11854;SDS011;5987;53.140;8.904;2023-09-07T04:44:30;6.97;;;5.27;;
11854;SDS011;5987;53.140;8.904;2023-09-07T04:47:35;6.43;;;4.77;;
11854;SDS011;5987;53.140;8.904;2023-09-07T04:50:39;6.53;;;5.20;;
11854;SDS011;5987;53.140;8.904;2023-09-07T04:53:42;7.00;;;5.20;;
11854;SDS011;5987;53.140;8.904;2023-09-07T04:56:47;9.20;;;5.60;;
11854;SDS011;5987;53.140;8.904;2023-09-07T04:59:52;7.30;;;5.50;;
11854;SDS011;5987;53.140;8.904;2023-09-07T05:02:55;6.73;;;5.03;;
11854;SDS011;5987;53.140;8.904;2023-09-07T05:05:59;6.50;;;5.23;;
11854;SDS011;5987;53.140;8.904;2023-09-07T05:09:04;8.97;;;6.30;;
11854;SDS011;5987;53.140;8.904;2023-09-07T05:12:09;10.80;;;5.20;;
11854;SDS011;5987;53.140;8.904;2023-09-07T05:15:13;7.47;;;5.67;;
11854;SDS011;5987;53.140;8.904;2023-09-07T05:18:16;6.90;;;5.37;;
11854;SDS011;5987;53.140;8.904;2023-09-07T05:21:21;8.60;;;5.53;;
11854;SDS011;5987;53.140;8.904;2023-09-07T05:24:25;12.07;;;6.23;;
11854;SDS011;5987;53.140;8.904;2023-09-07T05:27:30;8.33;;;5.60;;
11854;SDS011;5987;53.140;8.904;2023-09-07T05:30:33;8.23;;;4.97;;
11854;SDS011;5987;53.140;8.904;2023-09-07T05:33:37;7.93;;;5.43;;
11854;SDS011;5987;53.140;8.904;2023-09-07T05:36:41;12.43;;;6.60;;
11854;SDS011;5987;53.140;8.904;2023-09-07T05:39:45;9.90;;;5.70;;
11854;SDS011;5987;53.140;8.904;2023-09-07T05:42:50;7.80;;;5.80;;
11854;SDS011;5987;53.140;8.904;2023-09-07T05:45:53;10.17;;;5.83;;
11854;SDS011;5987;53.140;8.904;2023-09-07T05:48:57;7.60;;;5.30;;
11854;SDS011;5987;53.140;8.904;2023-09-07T05:52:01;7.07;;;4.73;;
11854;SDS011;5987;53.140;8.904;2023-09-07T05:55:09;6.43;;;5.07;;
11854;SDS011;5987;53.140;8.904;2023-09-07T05:58:14;6.97;;;5.67;;
11854;SDS011;5987;53.140;8.904;2023-09-07T06:01:20;7.47;;;5.60;;
11854;SDS011;5987;53.140;8.904;2023-09-07T06:04:24;6.30;;;5.20;;
11854;SDS011;5987;53.140;8.904;2023-09-07T06:07:27;12.43;;;6.13;;
11854;SDS011;5987;53.140;8.904;2023-09-07T06:10:31;9.63;;;5.40;;
11854;SDS011;5987;53.140;8.904;2023-09-07T06:13:36;5.40;;;4.53;;
11854;SDS011;5987;53.140;8.904;2023-09-07T06:16:40;8.63;;;5.27;;
11854;SDS011;5987;53.140;8.904;2023-09-07T06:19:44;10.23;;;5.50;;
11854;SDS011;5987;53.140;8.904;2023-09-07T06:22:49;6.77;;;5.00;;
11854;SDS011;5987;53.140;8.904;2023-09-07T06:25:53;8.70;;;6.20;;
11854;SDS011;5987;53.140;8.904;2023-09-07T06:28:58;6.27;;;4.93;;
11854;SDS011;5987;53.140;8.904;2023-09-07T06:32:01;6.17;;;4.47;;
11854;SDS011;5987;53.140;8.904;2023-09-07T06:35:07;6.70;;;5.07;;
11854;SDS011;5987;53.140;8.904;2023-09-07T06:38:11;7.60;;;5.67;;
11854;SDS011;5987;53.140;8.904;2023-09-07T06:41:16;6.00;;;4.60;;
11854;SDS011;5987;53.140;8.904;2023-09-07T06:44:21;5.97;;;4.63;;
11854;SDS011;5987;53.140;8.904;2023-09-07T06:47:24;6.03;;;4.80;;
11854;SDS011;5987;53.140;8.904;2023-09-07T06:50:31;7.00;;;4.90;;
11854;SDS011;5987;53.140;8.904;2023-09-07T06:53:35;6.63;;;5.13;;
11854;SDS011;5987;53.140;8.904;2023-09-07T06:56:57;5.53;;;4.50;;
11854;SDS011;5987;53.140;8.904;2023-09-07T07:00:03;4.70;;;3.90;;
11854;SDS011;5987;53.140;8.904;2023-09-07T07:03:08;9.03;;;4.27;;
11854;SDS011;5987;53.140;8.904;2023-09-07T07:06:12;5.60;;;4.27;;
11854;SDS011;5987;53.140;8.904;2023-09-07T07:09:16;8.00;;;5.40;;
11854;SDS011;5987;53.140;8.904;2023-09-07T07:12:19;5.40;;;4.87;;
11854;SDS011;5987;53.140;8.904;2023-09-07T07:15:24;6.40;;;4.90;;
11854;SDS011;5987;53.140;8.904;2023-09-07T07:18:28;6.50;;;5.07;;
11854;SDS011;5987;53.140;8.904;2023-09-07T07:21:32;8.70;;;4.67;;
11854;SDS011;5987;53.140;8.904;2023-09-07T07:24:35;5.53;;;4.90;;
11854;SDS011;5987;53.140;8.904;2023-09-07T07:27:39;8.93;;;5.13;;
11854;SDS011;5987;53.140;8.904;2023-09-07T07:30:44;7.13;;;4.90;;
11854;SDS011;5987;53.140;8.904;2023-09-07T07:33:49;5.80;;;4.47;;
11854;SDS011;5987;53.140;8.904;2023-09-07T07:36:53;6.67;;;4.80;;
11854;SDS011;5987;53.140;8.904;2023-09-07T07:40:02;7.23;;;4.90;;
11854;SDS011;5987;53.140;8.904;2023-09-07T07:43:20;5.67;;;4.43;;
11854;SDS011;5987;53.140;8.904;2023-09-07T07:46:25;4.50;;;4.10;;
11854;SDS011;5987;53.140;8.904;2023-09-07T07:49:29;6.47;;;4.80;;
11854;SDS011;5987;53.140;8.904;2023-09-07T07:52:33;7.87;;;4.30;;
11854;SDS011;5987;53.140;8.904;2023-09-07T07:55:37;5.43;;;4.00;;
11854;SDS011;5987;53.140;8.904;2023-09-07T07:58:42;5.40;;;4.73;;
11854;SDS011;5987;53.140;8.904;2023-09-07T08:01:48;5.07;;;3.83;;
11854;SDS011;5987;53.140;8.904;2023-09-07T08:04:52;7.10;;;4.30;;
11854;SDS011;5987;53.140;8.904;2023-09-07T08:07:56;8.37;;;4.40;;
11854;SDS011;5987;53.140;8.904;2023-09-07T08:11:01;8.00;;;4.00;;
11854;SDS011;5987;53.140;8.904;2023-09-07T08:14:07;6.57;;;3.90;;
11854;SDS011;5987;53.140;8.904;2023-09-07T08:17:12;4.23;;;3.73;;
11854;SDS011;5987;53.140;8.904;2023-09-07T08:20:16;6.17;;;4.33;;
11854;SDS011;5987;53.140;8.904;2023-09-07T08:23:20;8.53;;;4.53;;
11854;SDS011;5987;53.140;8.904;2023-09-07T08:26:24;4.90;;;4.43;;
11854;SDS011;5987;53.140;8.904;2023-09-07T08:29:28;4.27;;;3.50;;
11854;SDS011;5987;53.140;8.904;2023-09-07T08:32:35;7.57;;;4.00;;
11854;SDS011;5987;53.140;8.904;2023-09-07T08:35:39;4.37;;;3.73;;
11854;SDS011;5987;53.140;8.904;2023-09-07T08:38:45;4.90;;;3.40;;
11854;SDS011;5987;53.140;8.904;2023-09-07T08:41:49;6.17;;;3.80;;
11854;SDS011;5987;53.140;8.904;2023-09-07T08:45:02;5.33;;;4.30;;
11854;SDS011;5987;53.140;8.904;2023-09-07T08:48:09;4.10;;;3.37;;
11854;SDS011;5987;53.140;8.904;2023-09-07T08:51:17;4.13;;;3.57;;
11854;SDS011;5987;53.140;8.904;2023-09-07T08:54:22;7.97;;;4.00;;
11854;SDS011;5987;53.140;8.904;2023-09-07T08:57:26;11.10;;;4.97;;
11854;SDS011;5987;53.140;8.904;2023-09-07T09:00:32;7.17;;;3.90;;
11854;SDS011;5987;53.140;8.904;2023-09-07T09:03:38;5.53;;;3.73;;
11854;SDS011;5987;53.140;8.904;2023-09-07T09:06:42;6.20;;;3.70;;
11854;SDS011;5987;53.140;8.904;2023-09-07T09:09:45;4.33;;;3.90;;
11854;SDS011;5987;53.140;8.904;2023-09-07T09:12:52;4.00;;;3.60;;
11854;SDS011;5987;53.140;8.904;2023-09-07T09:15:55;4.37;;;3.97;;
11854;SDS011;5987;53.140;8.904;2023-09-07T09:19:03;4.20;;;3.60;;
11854;SDS011;5987;53.140;8.904;2023-09-07T09:22:07;5.63;;;4.17;;
11854;SDS011;5987;53.140;8.904;2023-09-07T09:25:11;6.00;;;4.17;;
11854;SDS011;5987;53.140;8.904;2023-09-07T09:28:15;7.63;;;4.17;;
11854;SDS011;5987;53.140;8.904;2023-09-07T09:31:19;5.97;;;4.20;;
11854;SDS011;5987;53.140;8.904;2023-09-07T09:34:24;5.50;;;4.60;;
11854;SDS011;5987;53.140;8.904;2023-09-07T09:37:28;7.87;;;4.27;;
11854;SDS011;5987;53.140;8.904;2023-09-07T09:40:32;4.70;;;3.90;;
11854;SDS011;5987;53.140;8.904;2023-09-07T09:43:37;5.60;;;4.67;;
11854;SDS011;5987;53.140;8.904;2023-09-07T09:46:40;8.13;;;4.40;;
11854;SDS011;5987;53.140;8.904;2023-09-07T09:49:49;6.53;;;3.70;;
11854;SDS011;5987;53.140;8.904;2023-09-07T09:52:54;6.40;;;4.93;;
11854;SDS011;5987;53.140;8.904;2023-09-07T09:56:00;5.27;;;3.73;;
11854;SDS011;5987;53.140;8.904;2023-09-07T09:59:03;5.23;;;3.70;;
11854;SDS011;5987;53.140;8.904;2023-09-07T10:02:07;4.63;;;3.93;;
11854;SDS011;5987;53.140;8.904;2023-09-07T10:05:13;4.50;;;3.60;;
11854;SDS011;5987;53.140;8.904;2023-09-07T10:08:18;5.90;;;3.60;;
11854;SDS011;5987;53.140;8.904;2023-09-07T10:11:29;6.30;;;4.27;;
11854;SDS011;5987;53.140;8.904;2023-09-07T10:14:40;6.20;;;3.77;;
11854;SDS011;5987;53.140;8.904;2023-09-07T10:17:46;3.83;;;3.53;;
11854;SDS011;5987;53.140;8.904;2023-09-07T10:20:54;3.93;;;3.33;;
11854;SDS011;5987;53.140;8.904;2023-09-07T10:24:00;5.10;;;3.40;;
11854;SDS011;5987;53.140;8.904;2023-09-07T10:27:04;10.43;;;4.20;;
11854;SDS011;5987;53.140;8.904;2023-09-07T10:30:09;5.87;;;3.43;;
11854;SDS011;5987;53.140;8.904;2023-09-07T10:33:21;3.63;;;3.13;;
11854;SDS011;5987;53.140;8.904;2023-09-07T10:36:26;4.80;;;3.03;;
11854;SDS011;5987;53.140;8.904;2023-09-07T10:39:31;5.37;;;3.60;;
11854;SDS011;5987;53.140;8.904;2023-09-07T10:42:35;5.20;;;3.27;;
11854;SDS011;5987;53.140;8.904;2023-09-07T10:45:38;4.83;;;3.47;;
11854;SDS011;5987;53.140;8.904;2023-09-07T10:48:51;3.67;;;3.07;;
11854;SDS011;5987;53.140;8.904;2023-09-07T10:51:59;6.87;;;3.53;;
11854;SDS011;5987;53.140;8.904;2023-09-07T10:55:03;3.50;;;2.83;;
11854;SDS011;5987;53.140;8.904;2023-09-07T10:58:08;4.83;;;3.27;;
11854;SDS011;5987;53.140;8.904;2023-09-07T11:01:12;4.90;;;4.40;;
11854;SDS011;5987;53.140;8.904;2023-09-07T11:04:18;5.03;;;3.50;;
11854;SDS011;5987;53.140;8.904;2023-09-07T11:07:23;3.43;;;2.80;;
11854;SDS011;5987;53.140;8.904;2023-09-07T11:10:27;3.73;;;3.20;;
11854;SDS011;5987;53.140;8.904;2023-09-07T11:13:34;4.23;;;2.87;;
11854;SDS011;5987;53.140;8.904;2023-09-07T11:16:40;6.70;;;3.07;;
11854;SDS011;5987;53.140;8.904;2023-09-07T11:19:45;4.73;;;2.80;;
11854;SDS011;5987;53.140;8.904;2023-09-07T11:22:56;5.00;;;3.10;;
11854;SDS011;5987;53.140;8.904;2023-09-07T11:26:07;5.47;;;3.10;;
11854;SDS011;5987;53.140;8.904;2023-09-07T11:29:13;5.43;;;3.10;;
11854;SDS011;5987;53.140;8.904;2023-09-07T11:32:17;2.97;;;2.53;;
11854;SDS011;5987;53.140;8.904;2023-09-07T11:35:23;3.50;;;3.20;;
11854;SDS011;5987;53.140;8.904;2023-09-07T11:38:29;4.87;;;2.87;;
11854;SDS011;5987;53.140;8.904;2023-09-07T11:41:39;3.03;;;2.73;;
11854;SDS011;5987;53.140;8.904;2023-09-07T11:44:44;3.57;;;2.63;;
11854;SDS011;5987;53.140;8.904;2023-09-07T11:47:48;2.80;;;2.47;;
11854;SDS011;5987;53.140;8.904;2023-09-07T11:50:51;3.80;;;2.83;;
11854;SDS011;5987;53.140;8.904;2023-09-07T11:53:56;3.30;;;2.70;;
11854;SDS011;5987;53.140;8.904;2023-09-07T11:57:00;4.67;;;2.50;;
11854;SDS011;5987;53.140;8.904;2023-09-07T12:00:05;3.10;;;2.33;;
11854;SDS011;5987;53.140;8.904;2023-09-07T12:03:12;3.20;;;2.37;;
11854;SDS011;5987;53.140;8.904;2023-09-07T12:06:16;2.50;;;2.30;;
11854;SDS011;5987;53.140;8.904;2023-09-07T12:09:21;4.03;;;2.40;;
11854;SDS011;5987;53.140;8.904;2023-09-07T12:12:24;3.37;;;2.80;;
11854;SDS011;5987;53.140;8.904;2023-09-07T12:15:28;4.07;;;2.83;;
11854;SDS011;5987;53.140;8.904;2023-09-07T12:18:32;3.67;;;2.23;;
11854;SDS011;5987;53.140;8.904;2023-09-07T12:21:36;2.30;;;2.10;;
11854;SDS011;5987;53.140;8.904;2023-09-07T12:24:59;2.60;;;2.23;;
11854;SDS011;5987;53.140;8.904;2023-09-07T12:28:14;2.70;;;2.13;;
11854;SDS011;5987;53.140;8.904;2023-09-07T12:31:18;4.50;;;2.90;;
11854;SDS011;5987;53.140;8.904;2023-09-07T12:34:22;2.47;;;1.93;;
11854;SDS011;5987;53.140;8.904;2023-09-07T12:37:26;3.47;;;3.00;;
11854;SDS011;5987;53.140;8.904;2023-09-07T12:40:31;2.60;;;2.37;;
11854;SDS011;5987;53.140;8.904;2023-09-07T12:43:36;4.50;;;2.73;;
11854;SDS011;5987;53.140;8.904;2023-09-07T12:46:40;2.80;;;2.43;;
11854;SDS011;5987;53.140;8.904;2023-09-07T12:50:03;3.00;;;2.23;;
11854;SDS011;5987;53.140;8.904;2023-09-07T12:53:08;2.57;;;2.37;;
11854;SDS011;5987;53.140;8.904;2023-09-07T12:56:13;2.90;;;2.57;;
11854;SDS011;5987;53.140;8.904;2023-09-07T12:59:19;3.57;;;2.47;;
11854;SDS011;5987;53.140;8.904;2023-09-07T13:02:23;2.77;;;2.27;;
11854;SDS011;5987;53.140;8.904;2023-09-07T13:05:46;3.57;;;2.73;;
11854;SDS011;5987;53.140;8.904;2023-09-07T13:08:51;2.90;;;2.53;;
11854;SDS011;5987;53.140;8.904;2023-09-07T13:11:56;4.60;;;2.63;;
11854;SDS011;5987;53.140;8.904;2023-09-07T13:14:59;3.83;;;2.90;;
11854;SDS011;5987;53.140;8.904;2023-09-07T13:18:03;2.70;;;2.40;;
11854;SDS011;5987;53.140;8.904;2023-09-07T13:21:07;3.80;;;2.73;;
11854;SDS011;5987;53.140;8.904;2023-09-07T13:24:10;4.50;;;2.80;;
11854;SDS011;5987;53.140;8.904;2023-09-07T13:27:16;3.63;;;2.63;;
11854;SDS011;5987;53.140;8.904;2023-09-07T13:30:38;4.67;;;2.50;;
11854;SDS011;5987;53.140;8.904;2023-09-07T13:34:00;3.40;;;3.07;;
11854;SDS011;5987;53.140;8.904;2023-09-07T13:37:24;3.40;;;2.80;;
11854;SDS011;5987;53.140;8.904;2023-09-07T13:40:28;3.10;;;2.80;;
11854;SDS011;5987;53.140;8.904;2023-09-07T13:43:33;3.17;;;2.83;;
11854;SDS011;5987;53.140;8.904;2023-09-07T13:46:36;3.53;;;2.77;;
11854;SDS011;5987;53.140;8.904;2023-09-07T13:49:59;3.23;;;2.87;;
11854;SDS011;5987;53.140;8.904;2023-09-07T13:53:22;2.93;;;2.63;;
11854;SDS011;5987;53.140;8.904;2023-09-07T13:56:26;3.23;;;2.80;;
11854;SDS011;5987;53.140;8.904;2023-09-07T13:59:31;7.73;;;3.00;;
11854;SDS011;5987;53.140;8.904;2023-09-07T14:02:37;4.57;;;2.70;;
11854;SDS011;5987;53.140;8.904;2023-09-07T14:05:41;4.37;;;2.90;;
11854;SDS011;5987;53.140;8.904;2023-09-07T14:08:45;5.00;;;3.30;;
11854;SDS011;5987;53.140;8.904;2023-09-07T14:11:50;3.17;;;2.87;;
11854;SDS011;5987;53.140;8.904;2023-09-07T14:14:54;3.40;;;3.10;;
11854;SDS011;5987;53.140;8.904;2023-09-07T14:18:16;6.07;;;3.33;;
11854;SDS011;5987;53.140;8.904;2023-09-07T14:21:38;2.83;;;2.50;;
11854;SDS011;5987;53.140;8.904;2023-09-07T14:24:42;3.37;;;2.80;;
11854;SDS011;5987;53.140;8.904;2023-09-07T14:27:46;4.27;;;2.70;;
11854;SDS011;5987;53.140;8.904;2023-09-07T14:30:50;3.00;;;2.70;;
11854;SDS011;5987;53.140;8.904;2023-09-07T14:33:55;5.13;;;3.50;;
11854;SDS011;5987;53.140;8.904;2023-09-07T14:37:18;4.47;;;3.50;;
11854;SDS011;5987;53.140;8.904;2023-09-07T14:40:22;3.90;;;3.07;;
11854;SDS011;5987;53.140;8.904;2023-09-07T14:43:25;4.77;;;3.00;;
11854;SDS011;5987;53.140;8.904;2023-09-07T14:46:31;4.53;;;3.10;;
11854;SDS011;5987;53.140;8.904;2023-09-07T14:49:35;3.43;;;2.63;;
11854;SDS011;5987;53.140;8.904;2023-09-07T14:52:39;5.10;;;3.37;;
11854;SDS011;5987;53.140;8.904;2023-09-07T14:55:45;5.77;;;3.73;;
11854;SDS011;5987;53.140;8.904;2023-09-07T14:58:49;4.17;;;3.37;;
11854;SDS011;5987;53.140;8.904;2023-09-07T15:01:54;4.23;;;3.07;;
11854;SDS011;5987;53.140;8.904;2023-09-07T15:05:25;3.90;;;3.00;;
11854;SDS011;5987;53.140;8.904;2023-09-07T15:08:48;5.70;;;3.00;;
11854;SDS011;5987;53.140;8.904;2023-09-07T15:12:11;5.47;;;3.07;;
11854;SDS011;5987;53.140;8.904;2023-09-07T15:15:20;7.77;;;3.50;;
11854;SDS011;5987;53.140;8.904;2023-09-07T15:18:26;3.97;;;2.87;;
11854;SDS011;5987;53.140;8.904;2023-09-07T15:21:32;4.77;;;3.40;;
11854;SDS011;5987;53.140;8.904;2023-09-07T15:24:36;5.23;;;3.60;;
11854;SDS011;5987;53.140;8.904;2023-09-07T15:27:39;3.83;;;3.10;;
11854;SDS011;5987;53.140;8.904;2023-09-07T15:30:46;8.63;;;3.17;;
11854;SDS011;5987;53.140;8.904;2023-09-07T15:33:51;4.33;;;3.40;;
11854;SDS011;5987;53.140;8.904;2023-09-07T15:36:55;4.03;;;3.43;;
11854;SDS011;5987;53.140;8.904;2023-09-07T15:39:58;4.10;;;3.40;;
11854;SDS011;5987;53.140;8.904;2023-09-07T15:43:02;4.53;;;3.73;;
11854;SDS011;5987;53.140;8.904;2023-09-07T15:46:06;4.00;;;3.60;;
11854;SDS011;5987;53.140;8.904;2023-09-07T15:49:12;4.67;;;3.43;;
11854;SDS011;5987;53.140;8.904;2023-09-07T15:52:17;4.03;;;3.20;;
11854;SDS011;5987;53.140;8.904;2023-09-07T15:55:22;4.50;;;3.87;;
11854;SDS011;5987;53.140;8.904;2023-09-07T15:58:25;4.57;;;3.47;;
11854;SDS011;5987;53.140;8.904;2023-09-07T16:01:29;4.17;;;3.30;;
11854;SDS011;5987;53.140;8.904;2023-09-07T16:04:34;4.27;;;3.80;;
11854;SDS011;5987;53.140;8.904;2023-09-07T16:07:38;5.03;;;3.20;;
11854;SDS011;5987;53.140;8.904;2023-09-07T16:10:41;3.57;;;3.23;;
11854;SDS011;5987;53.140;8.904;2023-09-07T16:13:45;2.93;;;2.73;;
11854;SDS011;5987;53.140;8.904;2023-09-07T16:16:49;5.73;;;3.73;;
11854;SDS011;5987;53.140;8.904;2023-09-07T16:19:54;11.27;;;4.43;;
11854;SDS011;5987;53.140;8.904;2023-09-07T16:22:58;4.33;;;3.60;;
11854;SDS011;5987;53.140;8.904;2023-09-07T16:26:01;4.63;;;3.60;;
11854;SDS011;5987;53.140;8.904;2023-09-07T16:29:24;5.73;;;3.63;;
11854;SDS011;5987;53.140;8.904;2023-09-07T16:32:27;6.00;;;4.37;;
11854;SDS011;5987;53.140;8.904;2023-09-07T16:35:32;4.77;;;3.83;;
11854;SDS011;5987;53.140;8.904;2023-09-07T16:38:36;4.03;;;3.63;;
11854;SDS011;5987;53.140;8.904;2023-09-07T16:41:40;5.43;;;3.50;;
11854;SDS011;5987;53.140;8.904;2023-09-07T16:45:02;4.27;;;3.20;;
11854;SDS011;5987;53.140;8.904;2023-09-07T16:48:26;3.97;;;3.53;;
11854;SDS011;5987;53.140;8.904;2023-09-07T16:51:33;6.00;;;3.20;;
11854;SDS011;5987;53.140;8.904;2023-09-07T16:54:37;5.17;;;3.67;;
11854;SDS011;5987;53.140;8.904;2023-09-07T16:57:41;4.80;;;3.67;;
11854;SDS011;5987;53.140;8.904;2023-09-07T17:00:45;5.63;;;3.97;;
11854;SDS011;5987;53.140;8.904;2023-09-07T17:04:07;6.07;;;3.80;;
11854;SDS011;5987;53.140;8.904;2023-09-07T17:07:30;4.47;;;3.90;;
11854;SDS011;5987;53.140;8.904;2023-09-07T17:10:52;4.07;;;3.67;;
11854;SDS011;5987;53.140;8.904;2023-09-07T17:13:56;5.80;;;3.67;;
11854;SDS011;5987;53.140;8.904;2023-09-07T17:17:03;4.07;;;3.43;;
11854;SDS011;5987;53.140;8.904;2023-09-07T17:20:07;6.20;;;3.60;;
11854;SDS011;5987;53.140;8.904;2023-09-07T17:23:13;4.47;;;3.37;;
11854;SDS011;5987;53.140;8.904;2023-09-07T17:26:17;3.53;;;2.90;;
11854;SDS011;5987;53.140;8.904;2023-09-07T17:29:20;5.77;;;3.50;;
11854;SDS011;5987;53.140;8.904;2023-09-07T17:32:24;3.80;;;3.03;;
11854;SDS011;5987;53.140;8.904;2023-09-07T17:35:30;3.77;;;2.93;;
11854;SDS011;5987;53.140;8.904;2023-09-07T17:38:58;4.27;;;2.77;;
11854;SDS011;5987;53.140;8.904;2023-09-07T17:42:20;3.27;;;2.97;;
11854;SDS011;5987;53.140;8.904;2023-09-07T17:45:43;5.17;;;4.03;;
11854;SDS011;5987;53.140;8.904;2023-09-07T17:48:46;5.07;;;4.03;;
11854;SDS011;5987;53.140;8.904;2023-09-07T17:51:50;5.33;;;3.50;;
11854;SDS011;5987;53.140;8.904;2023-09-07T17:54:56;4.87;;;3.73;;
11854;SDS011;5987;53.140;8.904;2023-09-07T17:58:18;4.93;;;3.80;;
11854;SDS011;5987;53.140;8.904;2023-09-07T18:01:40;7.03;;;3.60;;
11854;SDS011;5987;53.140;8.904;2023-09-07T18:04:44;5.73;;;3.57;;
11854;SDS011;5987;53.140;8.904;2023-09-07T18:07:48;4.97;;;3.83;;
11854;SDS011;5987;53.140;8.904;2023-09-07T18:10:54;3.60;;;3.30;;
11854;SDS011;5987;53.140;8.904;2023-09-07T18:13:58;6.77;;;3.87;;
11854;SDS011;5987;53.140;8.904;2023-09-07T18:17:32;5.90;;;3.77;;
11854;SDS011;5987;53.140;8.904;2023-09-07T18:20:37;5.90;;;3.73;;
11854;SDS011;5987;53.140;8.904;2023-09-07T18:23:41;7.97;;;4.13;;
11854;SDS011;5987;53.140;8.904;2023-09-07T18:26:46;5.00;;;3.33;;
11854;SDS011;5987;53.140;8.904;2023-09-07T18:29:49;4.17;;;3.07;;
11854;SDS011;5987;53.140;8.904;2023-09-07T18:33:12;3.73;;;3.20;;
11854;SDS011;5987;53.140;8.904;2023-09-07T18:36:35;5.07;;;3.07;;
11854;SDS011;5987;53.140;8.904;2023-09-07T18:39:57;4.73;;;3.40;;
11854;SDS011;5987;53.140;8.904;2023-09-07T18:43:02;4.63;;;3.17;;
11854;SDS011;5987;53.140;8.904;2023-09-07T18:46:06;5.30;;;3.20;;
11854;SDS011;5987;53.140;8.904;2023-09-07T18:49:11;3.97;;;3.50;;
11854;SDS011;5987;53.140;8.904;2023-09-07T18:52:15;6.10;;;3.57;;
11854;SDS011;5987;53.140;8.904;2023-09-07T18:55:38;5.33;;;3.40;;
11854;SDS011;5987;53.140;8.904;2023-09-07T18:59:02;3.83;;;2.90;;